createdAt,value
2018-05-13T00:01:47.786Z,9.60
2018-05-13T00:04:14.106Z,8.70
2018-05-13T00:06:40.390Z,10.10
2018-05-13T00:09:06.682Z,8.50
2018-05-13T00:11:33.929Z,9.67
2018-05-13T00:14:00.346Z,9.10
2018-05-13T00:16:26.615Z,7.60
2018-05-13T00:18:53.659Z,9.73
2018-05-13T00:21:19.925Z,7.80
2018-05-13T00:23:46.182Z,9.73
2018-05-13T00:26:12.466Z,9.10
2018-05-13T00:28:38.735Z,8.43
2018-05-13T00:31:05.018Z,8.13
2018-05-13T00:33:32.030Z,8.10
2018-05-13T00:35:58.298Z,9.23
2018-05-13T00:38:25.278Z,6.73
2018-05-13T00:40:51.546Z,8.77
2018-05-13T00:43:17.827Z,9.27
2018-05-13T00:45:44.104Z,10.93
2018-05-13T00:48:10.373Z,7.83
2018-05-13T00:50:36.631Z,6.87
2018-05-13T00:53:02.926Z,8.07
2018-05-13T00:55:29.169Z,7.03
2018-05-13T00:57:55.451Z,8.43
2018-05-13T01:00:21.746Z,6.57
2018-05-13T01:02:48.018Z,8.93
2018-05-13T01:05:15.029Z,8.83
2018-05-13T01:07:41.325Z,7.70
2018-05-13T01:10:07.586Z,8.10
2018-05-13T01:12:33.862Z,7.33
2018-05-13T01:15:00.898Z,13.83
2018-05-13T01:17:27.149Z,8.60
2018-05-13T01:19:54.161Z,8.63
2018-05-13T01:22:20.413Z,9.23
2018-05-13T01:24:47.453Z,8.60
2018-05-13T01:27:13.702Z,9.43
2018-05-13T01:29:39.990Z,9.00
2018-05-13T01:32:06.293Z,8.27
2018-05-13T01:34:32.550Z,9.83
2018-05-13T01:36:58.834Z,9.13
2018-05-13T01:39:25.086Z,8.40
2018-05-13T01:41:51.366Z,10.60
2018-05-13T01:44:17.655Z,9.33
2018-05-13T01:46:43.935Z,9.23
2018-05-13T01:49:10.937Z,8.67
2018-05-13T01:51:37.230Z,7.80
2018-05-13T01:54:03.502Z,8.13
2018-05-13T01:56:29.793Z,9.73
2018-05-13T01:58:56.054Z,9.33
2018-05-13T02:01:22.337Z,9.80
2018-05-13T02:03:49.346Z,11.60
2018-05-13T02:06:15.625Z,11.23
2018-05-13T02:08:41.890Z,9.43
2018-05-13T02:11:08.161Z,9.50
2018-05-13T02:13:35.185Z,9.60
2018-05-13T02:16:01.443Z,10.77
2018-05-13T02:18:28.459Z,9.00
2018-05-13T02:20:54.814Z,8.83
2018-05-13T02:23:21.240Z,8.83
2018-05-13T02:25:47.502Z,10.43
2018-05-13T02:28:13.773Z,7.17
2018-05-13T02:30:46.909Z,6.93
2018-05-13T02:33:13.202Z,40.13
2018-05-13T02:35:39.485Z,7.50
2018-05-13T02:38:05.741Z,8.17
2018-05-13T02:40:31.994Z,12.67
2018-05-13T02:42:58.254Z,6.97
2018-05-13T02:45:25.284Z,6.50
2018-05-13T02:47:51.551Z,5.23
2018-05-13T02:50:17.837Z,5.10
2018-05-13T02:52:44.142Z,5.67
2018-05-13T02:55:10.409Z,8.23
2018-05-13T02:57:36.693Z,5.90
2018-05-13T03:00:02.987Z,5.87
2018-05-13T03:02:30.050Z,6.43
2018-05-13T03:04:56.329Z,9.73
2018-05-13T03:07:22.610Z,6.83
2018-05-13T03:09:48.882Z,8.50
2018-05-13T03:12:15.165Z,7.03
2018-05-13T03:14:41.438Z,9.03
2018-05-13T03:17:07.738Z,7.00
2018-05-13T03:19:34.033Z,5.17
2018-05-13T03:22:01.035Z,5.73
2018-05-13T03:24:27.294Z,5.40
2018-05-13T03:26:53.571Z,5.40
2018-05-13T03:29:19.829Z,5.20
2018-05-13T03:31:46.101Z,5.30
2018-05-13T03:34:13.130Z,5.80
2018-05-13T03:36:39.423Z,4.17
2018-05-13T03:39:05.693Z,4.77
2018-05-13T03:41:31.985Z,7.90
2018-05-13T03:43:58.291Z,6.20
2018-05-13T03:46:24.597Z,6.23
2018-05-13T03:48:51.623Z,5.97
2018-05-13T03:51:17.890Z,7.67
2018-05-13T03:53:44.146Z,5.80
2018-05-13T03:56:10.435Z,6.57
2018-05-13T03:58:37.437Z,6.13
2018-05-13T04:01:03.719Z,8.20
2018-05-13T04:03:30.736Z,7.10
2018-05-13T04:05:57.893Z,7.60
2018-05-13T04:08:45.813Z,7.80
2018-05-13T04:11:25.233Z,10.10
2018-05-13T04:14:03.953Z,9.60
2018-05-13T04:16:30.234Z,5.70
2018-05-13T04:18:57.233Z,7.80
2018-05-13T04:21:24.282Z,10.97
2018-05-13T04:23:50.541Z,6.17
2018-05-13T04:26:16.809Z,6.87
2018-05-13T04:28:43.113Z,6.37
2018-05-13T04:31:09.354Z,8.90
2018-05-13T04:33:36.392Z,10.30
2018-05-13T04:36:03.415Z,7.30
2018-05-13T04:38:29.678Z,9.17
2018-05-13T04:40:56.750Z,7.23
2018-05-13T04:43:23.009Z,7.70
2018-05-13T04:45:49.295Z,7.30
2018-05-13T04:48:15.927Z,7.10
2018-05-13T04:50:42.191Z,8.37
2018-05-13T04:53:08.461Z,7.50
2018-05-13T04:55:34.753Z,10.23
2018-05-13T04:58:01.031Z,8.67
2018-05-13T05:00:28.037Z,9.33
2018-05-13T05:02:54.623Z,8.50
2018-05-13T05:05:21.624Z,7.90
2018-05-13T05:07:47.897Z,10.80
2018-05-13T05:10:14.919Z,10.00
2018-05-13T05:12:41.181Z,9.20
2018-05-13T05:15:08.191Z,9.10
2018-05-13T05:17:34.491Z,9.10
2018-05-13T05:20:00.777Z,10.77
2018-05-13T05:22:27.783Z,11.57
2018-05-13T05:24:54.100Z,11.07
2018-05-13T05:27:20.374Z,11.40
2018-05-13T05:29:46.629Z,10.30
2018-05-13T05:32:12.935Z,9.93
2018-05-13T05:34:39.959Z,12.97
2018-05-13T05:37:06.222Z,11.03
2018-05-13T05:39:33.238Z,11.40
2018-05-13T05:41:59.523Z,9.50
2018-05-13T05:44:25.781Z,9.23
2018-05-13T05:46:52.073Z,8.43
2018-05-13T05:49:19.082Z,9.43
2018-05-13T05:51:45.343Z,8.43
2018-05-13T05:54:12.396Z,8.83
2018-05-13T05:56:39.414Z,9.90
2018-05-13T05:59:05.666Z,8.40
2018-05-13T06:01:32.707Z,10.13
2018-05-13T06:03:59.722Z,8.80
2018-05-13T06:06:25.997Z,8.47
2018-05-13T06:08:52.302Z,13.37
2018-05-13T06:11:19.318Z,9.47
2018-05-13T06:13:45.585Z,10.40
2018-05-13T06:16:11.958Z,8.13
2018-05-13T06:18:38.202Z,7.33
2018-05-13T06:21:04.454Z,9.20
2018-05-13T06:23:30.737Z,8.40
2018-05-13T06:25:57.010Z,9.50
2018-05-13T06:28:23.257Z,8.90
2018-05-13T06:30:49.782Z,9.63
2018-05-13T06:33:16.039Z,9.70
2018-05-13T06:35:43.041Z,9.43
2018-05-13T06:38:09.323Z,13.17
2018-05-13T06:40:36.334Z,9.87
2018-05-13T06:43:02.597Z,10.10
2018-05-13T06:45:29.630Z,12.83
2018-05-13T06:47:55.869Z,10.50
2018-05-13T06:50:22.888Z,13.23
2018-05-13T06:52:49.175Z,20.50
2018-05-13T06:55:15.460Z,13.63
2018-05-13T06:57:41.791Z,15.03
2018-05-13T07:00:08.779Z,14.70
2018-05-13T07:02:35.041Z,15.17
2018-05-13T07:05:01.286Z,15.17
2018-05-13T07:07:27.583Z,15.00
2018-05-13T07:09:53.867Z,18.87
2018-05-13T07:12:20.877Z,22.00
2018-05-13T07:14:47.200Z,18.00
2018-05-13T07:17:13.505Z,19.40
2018-05-13T07:19:39.763Z,20.27
2018-05-13T07:22:06.046Z,24.20
2018-05-13T07:24:33.047Z,20.60
2018-05-13T07:26:59.311Z,28.27
2018-05-13T07:29:26.349Z,23.70
2018-05-13T07:31:53.387Z,22.10
2018-05-13T07:34:19.647Z,23.70
2018-05-13T07:36:45.946Z,36.63
2018-05-13T07:39:12.210Z,25.33
2018-05-13T07:41:38.466Z,27.20
2018-05-13T07:44:04.771Z,24.93
2018-05-13T07:46:31.054Z,32.43
2018-05-13T07:48:57.318Z,27.37
2018-05-13T07:51:24.358Z,29.50
2018-05-13T07:53:51.381Z,28.30
2018-05-13T07:56:17.639Z,34.10
2018-05-13T07:58:44.658Z,40.10
2018-05-13T08:01:10.918Z,34.70
2018-05-13T08:03:37.914Z,38.77
2018-05-13T08:06:04.308Z,32.23
2018-05-13T08:08:30.512Z,34.23
2018-05-13T08:10:56.770Z,35.90
2018-05-13T08:13:23.045Z,46.77
2018-05-13T08:15:49.310Z,38.60
2018-05-13T08:18:16.322Z,34.03
2018-05-13T08:20:42.615Z,34.50
2018-05-13T08:23:08.882Z,40.07
2018-05-13T08:25:35.146Z,39.30
2018-05-13T08:28:02.208Z,33.23
2018-05-13T08:30:28.506Z,37.53
2018-05-13T08:32:55.511Z,39.10
2018-05-13T08:35:21.786Z,36.53
2018-05-13T08:37:48.060Z,39.43
2018-05-13T08:40:14.317Z,36.53
2018-05-13T08:42:40.621Z,39.33
2018-05-13T08:45:06.905Z,40.03
2018-05-13T08:47:33.211Z,36.43
2018-05-13T08:49:59.518Z,36.00
2018-05-13T08:52:25.781Z,42.67
2018-05-13T08:54:52.050Z,39.33
2018-05-13T08:57:18.349Z,38.27
2018-05-13T08:59:44.643Z,42.90
2018-05-13T09:02:11.618Z,36.97
2018-05-13T09:04:37.909Z,35.73
2018-05-13T09:07:04.181Z,35.23
2018-05-13T09:09:30.449Z,35.50
2018-05-13T09:11:56.746Z,36.60
2018-05-13T09:14:23.066Z,42.37
2018-05-13T09:16:49.302Z,42.33
2018-05-13T09:19:15.582Z,42.80
2018-05-13T09:21:41.846Z,41.83
2018-05-13T09:24:08.123Z,44.47
2018-05-13T09:26:35.241Z,40.40
2018-05-13T09:29:01.441Z,49.80
2018-05-13T09:31:27.715Z,47.60
2018-05-13T09:33:54.747Z,47.50
2018-05-13T09:36:21.008Z,50.50
2018-05-13T09:38:48.036Z,43.00
2018-05-13T09:41:15.061Z,47.80
2018-05-13T09:43:41.331Z,52.07
2018-05-13T09:46:08.350Z,47.93
2018-05-13T09:48:34.664Z,47.77
2018-05-13T09:51:00.946Z,50.87
2018-05-13T09:53:27.237Z,52.27
2018-05-13T09:55:53.542Z,50.13
2018-05-13T09:58:19.797Z,50.07
2018-05-13T10:00:46.067Z,46.77
2018-05-13T10:03:12.347Z,49.80
2018-05-13T10:05:38.631Z,59.10
2018-05-13T10:08:04.964Z,48.13
2018-05-13T10:10:31.275Z,59.60
2018-05-13T10:12:57.582Z,54.90
2018-05-13T10:15:23.847Z,54.63
2018-05-13T10:17:50.134Z,61.73
2018-05-13T10:20:16.378Z,60.43
2018-05-13T10:22:42.697Z,64.73
2018-05-13T10:25:08.978Z,54.50
2018-05-13T10:27:35.984Z,64.60
2018-05-13T10:30:02.278Z,56.83
2018-05-13T10:32:28.586Z,60.10
2018-05-13T10:34:54.873Z,61.07
2018-05-13T10:37:21.132Z,70.10
2018-05-13T10:39:47.450Z,64.80
2018-05-13T10:42:14.462Z,62.10
2018-05-13T10:44:40.730Z,60.63
2018-05-13T10:47:07.056Z,60.50
2018-05-13T10:49:34.069Z,62.37
2018-05-13T10:52:00.347Z,69.17
2018-05-13T10:54:26.642Z,77.93
2018-05-13T10:56:52.877Z,79.20
2018-05-13T10:59:19.139Z,62.90
2018-05-13T11:01:45.409Z,77.30
2018-05-13T11:04:11.673Z,66.17
2018-05-13T11:06:37.958Z,73.73
2018-05-13T11:09:04.263Z,60.80
2018-05-13T11:11:30.522Z,65.23
2018-05-13T11:13:56.807Z,63.13
2018-05-13T11:16:23.834Z,64.80
2018-05-13T11:18:50.146Z,67.17
2018-05-13T11:21:16.411Z,63.23
2018-05-13T11:23:42.701Z,67.40
2018-05-13T11:26:08.973Z,76.27
2018-05-13T11:28:35.966Z,68.37
2018-05-13T11:31:02.241Z,67.13
2018-05-13T11:33:29.242Z,66.00
2018-05-13T11:35:56.241Z,68.03
2018-05-13T11:38:22.521Z,70.67
2018-05-13T11:40:48.769Z,68.87
2018-05-13T11:43:15.030Z,60.50
2018-05-13T11:45:41.321Z,70.03
2018-05-13T11:48:07.578Z,69.43
2018-05-13T11:50:33.820Z,64.33
2018-05-13T11:53:00.837Z,68.03
2018-05-13T11:55:27.094Z,51.70
2018-05-13T11:57:54.155Z,61.77
2018-05-13T12:00:20.465Z,60.47
2018-05-13T12:02:47.486Z,60.33
2018-05-13T12:05:13.737Z,60.87
2018-05-13T12:07:40.018Z,53.57
2018-05-13T12:10:06.379Z,56.00
2018-05-13T12:12:32.643Z,55.03
2018-05-13T12:14:58.935Z,56.30
2018-05-13T12:17:25.206Z,55.20
2018-05-13T12:19:52.212Z,59.87
2018-05-13T12:22:18.525Z,53.70
2018-05-13T12:24:44.801Z,48.63
2018-05-13T12:27:11.801Z,53.70
2018-05-13T12:29:38.082Z,50.67
2018-05-13T12:32:05.087Z,52.73
2018-05-13T12:34:31.354Z,60.77
2018-05-13T12:36:58.373Z,49.00
2018-05-13T12:39:24.638Z,53.43
2018-05-13T12:41:51.654Z,53.40
2018-05-13T12:44:17.938Z,51.77
2018-05-13T12:46:44.201Z,50.17
2018-05-13T12:49:10.454Z,51.43
2018-05-13T12:51:36.758Z,50.17
2018-05-13T12:54:03.027Z,54.10
2018-05-13T12:56:30.039Z,56.23
2018-05-13T12:58:56.354Z,49.50
2018-05-13T13:01:22.622Z,49.90
2018-05-13T13:03:48.887Z,47.53
2018-05-13T13:06:15.244Z,46.33
2018-05-13T13:08:41.496Z,41.93
2018-05-13T13:11:07.756Z,51.47
2018-05-13T13:13:34.802Z,46.77
2018-05-13T13:16:01.044Z,47.53
2018-05-13T13:18:28.055Z,55.00
2018-05-13T13:20:54.378Z,47.80
2018-05-13T13:23:20.634Z,47.77
2018-05-13T13:25:46.902Z,50.03
2018-05-13T13:28:13.214Z,38.30
2018-05-13T13:30:39.514Z,41.20
2018-05-13T13:33:05.818Z,41.20
2018-05-13T13:35:32.098Z,40.73
2018-05-13T13:37:59.107Z,42.63
2018-05-13T13:40:25.378Z,38.73
2018-05-13T13:42:52.415Z,40.60
2018-05-13T13:45:19.414Z,42.00
2018-05-13T13:47:45.689Z,40.40
2018-05-13T13:50:12.745Z,37.90
2018-05-13T13:52:39.782Z,37.60
2018-05-13T13:55:06.773Z,38.47
2018-05-13T13:57:33.086Z,36.87
2018-05-13T13:59:59.349Z,37.67
2018-05-13T14:02:25.625Z,38.43
2018-05-13T14:04:52.657Z,37.17
2018-05-13T14:07:18.965Z,37.50
2018-05-13T14:09:45.238Z,37.33
2018-05-13T14:12:11.526Z,34.73
2018-05-13T14:14:37.798Z,43.83
2018-05-13T14:17:04.801Z,41.90
2018-05-13T14:19:31.094Z,33.63
2018-05-13T14:21:57.387Z,38.27
2018-05-13T14:24:23.694Z,34.13
2018-05-13T14:26:49.974Z,35.13
2018-05-13T14:29:16.310Z,37.27
2018-05-13T14:31:42.575Z,35.37
2018-05-13T14:34:08.847Z,35.70
2018-05-13T14:36:35.117Z,31.80
2018-05-13T14:39:11.821Z,32.13
2018-05-13T14:41:27.669Z,33.50
2018-05-13T14:43:53.966Z,32.43
2018-05-13T14:46:20.962Z,34.57
2018-05-13T14:48:47.258Z,34.77
2018-05-13T14:51:13.537Z,33.07
2018-05-13T14:53:39.806Z,33.67
2018-05-13T14:56:06.102Z,35.13
2018-05-13T14:58:32.354Z,33.70
2018-05-13T15:00:58.603Z,39.57
2018-05-13T15:03:24.885Z,38.93
2018-05-13T15:05:51.223Z,36.80
2018-05-13T15:08:17.475Z,40.30
2018-05-13T15:10:43.766Z,41.37
2018-05-13T15:13:10.020Z,44.57
2018-05-13T15:15:36.282Z,43.50
2018-05-13T15:18:03.349Z,39.97
2018-05-13T15:20:29.623Z,40.27
2018-05-13T15:22:55.898Z,46.17
2018-05-13T15:25:22.177Z,43.77
2018-05-13T15:27:48.436Z,46.40
2018-05-13T15:30:14.701Z,42.73
2018-05-13T15:32:41.008Z,44.93
2018-05-13T15:35:07.277Z,44.40
2018-05-13T15:37:33.558Z,44.67
2018-05-13T15:39:59.922Z,45.70
2018-05-13T15:42:26.210Z,42.90
2018-05-13T15:44:53.298Z,42.93
2018-05-13T15:47:19.619Z,43.00
2018-05-13T15:49:45.898Z,48.57
2018-05-13T15:52:12.170Z,43.50
2018-05-13T15:54:38.461Z,50.80
2018-05-13T15:57:04.717Z,42.67
2018-05-13T15:59:31.710Z,41.23
2018-05-13T16:01:58.042Z,42.13
2018-05-13T16:04:24.309Z,45.67
2018-05-13T16:06:50.579Z,43.50
2018-05-13T16:09:16.903Z,44.77
2018-05-13T16:11:43.197Z,43.37
2018-05-13T16:14:11.332Z,40.40
2018-05-13T16:16:37.639Z,49.20
2018-05-13T16:19:04.058Z,46.73
2018-05-13T16:21:30.270Z,43.17
2018-05-13T16:23:57.556Z,50.67
2018-05-13T16:26:23.875Z,42.07
2018-05-13T16:28:50.181Z,45.23
2018-05-13T16:31:16.481Z,43.93
2018-05-13T16:33:42.746Z,43.60
2018-05-13T16:36:09.785Z,42.43
2018-05-13T16:38:37.012Z,43.40
2018-05-13T16:41:03.326Z,46.47
2018-05-13T16:43:29.669Z,44.37
2018-05-13T16:45:55.998Z,46.83
2018-05-13T16:48:22.278Z,42.53
2018-05-13T16:50:49.298Z,43.13
2018-05-13T16:53:15.651Z,44.70
2018-05-13T16:55:41.878Z,43.37
2018-05-13T16:58:08.892Z,40.57
2018-05-13T17:00:35.193Z,38.57
2018-05-13T17:03:01.519Z,41.30
2018-05-13T17:05:27.828Z,43.77
2018-05-13T17:07:54.154Z,38.77
2018-05-13T17:10:21.211Z,41.90
2018-05-13T17:12:48.226Z,41.73
2018-05-13T17:15:14.530Z,41.93
2018-05-13T17:17:40.851Z,41.83
2018-05-13T17:20:07.252Z,40.27
2018-05-13T17:22:33.634Z,40.97
2018-05-13T17:24:59.956Z,40.60
2018-05-13T17:27:26.257Z,42.57
2018-05-13T17:29:52.578Z,46.60
2018-05-13T17:32:20.626Z,40.20
2018-05-13T17:34:46.962Z,43.20
2018-05-13T17:37:14.207Z,35.17
2018-05-13T17:39:40.478Z,37.27
2018-05-13T17:42:06.943Z,39.50
2018-05-13T17:44:34.294Z,37.10
2018-05-13T17:47:00.700Z,40.43
2018-05-13T17:49:27.035Z,44.80
2018-05-13T17:51:53.453Z,36.97
2018-05-13T17:54:19.999Z,38.23
2018-05-13T17:56:46.460Z,43.50
2018-05-13T17:59:12.856Z,40.50
2018-05-13T18:01:39.159Z,35.40
2018-05-13T18:04:06.245Z,36.03
2018-05-13T18:06:32.635Z,36.87
2018-05-13T18:08:58.954Z,40.27
2018-05-13T18:11:25.246Z,62.33
2018-05-13T18:13:51.596Z,37.80
2018-05-13T18:16:17.892Z,40.83
2018-05-13T18:18:44.172Z,38.33
2018-05-13T18:21:10.576Z,38.23
2018-05-13T18:23:36.871Z,42.93
2018-05-13T18:26:03.886Z,58.57
2018-05-13T18:28:30.196Z,38.43
2018-05-13T18:30:56.482Z,40.70
2018-05-13T18:33:23.524Z,43.10
2018-05-13T18:35:50.592Z,40.47
2018-05-13T18:38:16.879Z,40.20
2018-05-13T18:40:43.956Z,39.07
2018-05-13T18:43:10.344Z,40.60
2018-05-13T18:45:36.642Z,39.77
2018-05-13T18:48:02.973Z,44.87
2018-05-13T18:50:29.304Z,50.77
2018-05-13T18:52:55.619Z,37.90
2018-05-13T18:55:21.915Z,39.23
2018-05-13T18:57:49.088Z,45.60
2018-05-13T19:00:15.400Z,41.20
2018-05-13T19:02:41.695Z,42.63
2018-05-13T19:05:08.046Z,48.10
2018-05-13T19:07:34.426Z,46.10
2018-05-13T19:10:00.754Z,52.50
2018-05-13T19:12:27.094Z,51.27
2018-05-13T19:14:53.572Z,49.23
2018-05-13T19:17:19.887Z,51.47
2018-05-13T19:19:46.255Z,51.60
2018-05-13T19:22:12.556Z,47.50
2018-05-13T19:24:38.833Z,66.10
2018-05-13T19:27:06.682Z,55.53
2018-05-13T19:29:33.091Z,47.97
2018-05-13T19:31:59.426Z,45.37
2018-05-13T19:34:25.714Z,46.60
2018-05-13T19:36:52.083Z,46.20
2018-05-13T19:39:18.317Z,48.70
2018-05-13T19:41:44.601Z,47.03
2018-05-13T19:44:10.973Z,47.23
2018-05-13T19:46:37.395Z,48.87
2018-05-13T19:49:03.708Z,50.70
2018-05-13T19:51:30.015Z,48.90
2018-05-13T19:53:56.337Z,51.13
2018-05-13T19:56:22.671Z,47.23
2018-05-13T19:58:48.958Z,51.80
2018-05-13T20:01:15.227Z,56.70
2018-05-13T20:03:42.354Z,47.70
2018-05-13T20:06:08.666Z,50.27
2018-05-13T20:08:34.942Z,61.83
2018-05-13T20:11:01.970Z,50.77
2018-05-13T20:13:28.227Z,48.00
2018-05-13T20:15:54.509Z,42.43
2018-05-13T20:18:20.806Z,45.50
2018-05-13T20:20:47.107Z,45.63
2018-05-13T20:23:24.582Z,52.40
2018-05-13T20:25:51.513Z,52.10
2018-05-13T20:28:17.802Z,55.60
2018-05-13T20:30:44.094Z,56.97
2018-05-13T20:33:11.166Z,57.57
2018-05-13T20:35:37.501Z,56.10
2018-05-13T20:38:03.834Z,51.50
2018-05-13T20:40:30.091Z,53.23
2018-05-13T20:42:56.375Z,56.30
2018-05-13T20:45:23.426Z,50.13
2018-05-13T20:47:49.861Z,49.40
2018-05-13T20:50:16.287Z,56.53
2018-05-13T20:52:42.782Z,53.30
2018-05-13T20:55:09.210Z,62.07
2018-05-13T20:57:36.751Z,50.40
2018-05-13T21:00:03.965Z,57.53
2018-05-13T21:02:30.682Z,54.43
2018-05-13T21:04:57.451Z,47.97
2018-05-13T21:07:23.823Z,51.37
2018-05-13T21:09:50.106Z,51.20
2018-05-13T21:12:17.144Z,53.77
2018-05-13T21:14:43.423Z,52.93
2018-05-13T21:17:11.528Z,48.07
2018-05-13T21:19:37.816Z,63.23
2018-05-13T21:22:04.107Z,51.50
2018-05-13T21:24:30.393Z,50.03
2018-05-13T21:26:56.710Z,51.37
2018-05-13T21:29:22.970Z,49.67
2018-05-13T21:31:49.239Z,54.13
2018-05-13T21:34:16.251Z,52.17
2018-05-13T21:36:42.533Z,52.60
2018-05-13T21:39:08.794Z,61.07
2018-05-13T21:41:35.082Z,59.77
2018-05-13T21:44:01.375Z,58.83
2018-05-13T21:46:27.648Z,55.77
2018-05-13T21:48:53.952Z,57.10
2018-05-13T21:51:20.207Z,61.27
2018-05-13T21:53:46.478Z,67.83
2018-05-13T21:56:12.756Z,59.90
2018-05-13T21:58:39.067Z,65.37
2018-05-13T22:01:05.386Z,63.40
2018-05-13T22:03:31.670Z,73.47
2018-05-13T22:05:57.970Z,76.93
2018-05-13T22:08:24.979Z,82.00
2018-05-13T22:10:51.262Z,65.70
2018-05-13T22:13:17.546Z,70.55
2018-05-13T22:15:43.802Z,74.70
2018-05-13T22:18:10.814Z,63.30
2018-05-13T22:20:37.112Z,64.10
2018-05-13T22:23:03.382Z,67.30
2018-05-13T22:25:29.667Z,65.90
2018-05-13T22:27:55.948Z,64.60
2018-05-13T22:30:22.230Z,67.40
2018-05-13T22:32:48.490Z,78.40
2018-05-13T22:35:14.775Z,69.80
2018-05-13T22:37:41.027Z,63.43
2018-05-13T22:40:07.310Z,72.87
2018-05-13T22:42:33.561Z,68.60
2018-05-13T22:44:59.890Z,79.60
2018-05-13T22:47:26.311Z,72.00
2018-05-13T22:49:52.530Z,67.10
2018-05-13T22:52:18.828Z,64.20
2018-05-13T22:54:45.804Z,64.03
2018-05-13T22:57:12.078Z,60.33
2018-05-13T22:59:38.350Z,62.67
2018-05-13T23:02:04.664Z,61.37
2018-05-13T23:04:30.969Z,56.10
2018-05-13T23:06:57.258Z,61.20
2018-05-13T23:09:23.497Z,67.57
2018-05-13T23:11:50.517Z,61.43
2018-05-13T23:14:16.802Z,66.93
2018-05-13T23:16:43.108Z,65.83
2018-05-13T23:19:10.142Z,62.20
2018-05-13T23:21:36.495Z,78.43
2018-05-13T23:24:02.718Z,67.70
2018-05-13T23:26:29.021Z,65.72
2018-05-13T23:28:55.310Z,66.53
2018-05-13T23:31:21.579Z,81.47
2018-05-13T23:33:47.850Z,69.43
2018-05-13T23:36:14.151Z,68.93
2018-05-13T23:38:40.461Z,76.50
2018-05-13T23:41:06.782Z,73.68
2018-05-13T23:43:33.144Z,68.97
2018-05-13T23:45:59.338Z,78.00
2018-05-13T23:48:25.638Z,74.10
2018-05-13T23:50:51.918Z,76.17
2018-05-13T23:53:18.202Z,77.80
2018-05-13T23:55:44.474Z,80.05
2018-05-13T23:58:10.753Z,79.30
